createdAt,value
2022-09-22T00:00:55.875Z,3.83
2022-09-22T00:06:20.839Z,4.70
2022-09-22T00:11:45.067Z,4.05
2022-09-22T00:17:07.108Z,3.70
2022-09-22T00:22:29.897Z,3.87
2022-09-22T00:27:54.406Z,3.83
2022-09-22T00:33:16.168Z,3.20
2022-09-22T00:38:39.394Z,3.57
2022-09-22T00:44:25.893Z,3.40
2022-09-22T00:49:50.340Z,3.20
2022-09-22T00:55:18.669Z,3.50
2022-09-22T01:00:40.710Z,3.40
2022-09-22T01:06:06.368Z,2.73
2022-09-22T01:11:29.830Z,3.07
2022-09-22T01:17:13.140Z,3.50
2022-09-22T01:23:06.745Z,3.63
2022-09-22T01:29:07.076Z,3.27
2022-09-22T01:34:36.507Z,4.05
2022-09-22T01:40:04.301Z,3.50
2022-09-22T01:45:32.304Z,3.63
2022-09-22T01:51:11.991Z,3.70
2022-09-22T01:56:36.669Z,4.67
2022-09-22T02:02:06.140Z,4.17
2022-09-22T02:07:34.256Z,3.37
2022-09-22T02:12:56.130Z,4.37
2022-09-22T02:18:26.606Z,3.93
2022-09-22T02:23:49.440Z,3.93
2022-09-22T02:29:12.973Z,3.37
2022-09-22T02:34:35.050Z,3.40
2022-09-22T02:40:05.484Z,2.97
2022-09-22T02:45:53.577Z,2.97
2022-09-22T02:51:16.239Z,3.23
2022-09-22T02:56:38.048Z,3.40
2022-09-22T03:01:59.961Z,3.70
2022-09-22T03:07:21.807Z,2.97
2022-09-22T03:13:08.969Z,2.97
2022-09-22T03:18:25.624Z,2.93
2022-09-22T03:23:47.367Z,3.07
2022-09-22T03:29:09.329Z,2.60
2022-09-22T03:34:31.053Z,2.70
2022-09-22T03:39:53.000Z,2.73
2022-09-22T03:45:15.518Z,3.10
2022-09-22T03:50:37.218Z,3.30
2022-09-22T03:56:12.111Z,3.50
2022-09-22T04:01:34.138Z,3.70
2022-09-22T04:06:56.207Z,4.20
2022-09-22T04:12:17.915Z,3.77
2022-09-22T04:17:40.007Z,4.00
2022-09-22T04:23:01.962Z,3.93
2022-09-22T04:28:23.670Z,4.10
2022-09-22T04:33:45.762Z,4.33
2022-09-22T04:39:07.477Z,5.20
2022-09-22T04:44:32.196Z,4.30
2022-09-22T04:49:56.681Z,4.70
2022-09-22T04:55:20.965Z,4.67
2022-09-22T05:00:42.966Z,4.40
2022-09-22T05:06:06.225Z,4.20
2022-09-22T05:11:28.322Z,4.53
2022-09-22T05:16:50.040Z,3.80
2022-09-22T05:22:12.213Z,3.67
2022-09-22T05:27:34.086Z,4.10
2022-09-22T05:32:55.907Z,3.87
2022-09-22T05:38:17.624Z,4.37
2022-09-22T05:43:39.486Z,5.10
2022-09-22T05:49:01.297Z,5.70
2022-09-22T05:54:24.464Z,5.73
2022-09-22T05:59:46.231Z,5.90
2022-09-22T06:05:08.360Z,4.93
2022-09-22T06:10:35.574Z,5.30
2022-09-22T06:15:57.290Z,5.63
2022-09-22T06:21:19.019Z,6.70
2022-09-22T06:26:40.745Z,5.60
2022-09-22T06:32:02.501Z,6.47
2022-09-22T06:37:24.270Z,6.43
2022-09-22T06:42:46.346Z,6.57
2022-09-22T06:48:10.911Z,5.27
2022-09-22T06:53:32.617Z,6.07
2022-09-22T06:59:09.945Z,6.17
2022-09-22T07:04:32.389Z,5.33
2022-09-22T07:09:55.012Z,6.27
2022-09-22T07:15:16.769Z,6.00
2022-09-22T07:20:38.474Z,8.30
2022-09-22T07:26:03.789Z,9.63
2022-09-22T07:31:29.061Z,9.03
2022-09-22T07:36:54.427Z,7.80
2022-09-22T07:42:16.964Z,7.33
2022-09-22T07:47:57.285Z,7.07
2022-09-22T07:53:19.003Z,7.67
2022-09-22T07:58:49.895Z,7.13
2022-09-22T08:04:13.935Z,7.38
2022-09-22T08:09:35.985Z,8.13
2022-09-22T08:14:58.026Z,7.88
2022-09-22T08:20:20.133Z,8.93
2022-09-22T08:25:42.997Z,7.05
2022-09-22T08:31:12.832Z,6.90
2022-09-22T08:36:34.607Z,7.00
2022-09-22T08:42:08.449Z,7.28
2022-09-22T08:47:59.961Z,6.55
2022-09-22T08:53:23.348Z,6.10
2022-09-22T08:59:02.955Z,6.10
2022-09-22T09:04:52.930Z,5.50
2022-09-22T09:10:26.848Z,5.18
2022-09-22T09:16:01.764Z,4.80
2022-09-22T09:21:25.417Z,4.57
2022-09-22T09:26:48.363Z,3.72
2022-09-22T09:32:25.183Z,3.38
2022-09-22T09:37:48.719Z,3.85
2022-09-22T09:43:10.725Z,2.92
2022-09-22T09:48:43.412Z,3.17
2022-09-22T09:54:13.159Z,2.85
2022-09-22T09:59:59.639Z,2.47
2022-09-22T10:05:26.537Z,2.60
2022-09-22T10:10:48.876Z,2.80
2022-09-22T10:16:28.826Z,2.75
2022-09-22T10:21:50.724Z,2.20
2022-09-22T10:27:24.220Z,2.63
2022-09-22T10:33:03.565Z,1.65
2022-09-22T10:38:29.382Z,1.33
2022-09-22T10:44:27.329Z,1.13
2022-09-22T10:50:03.046Z,1.33
2022-09-22T10:55:33.650Z,1.35
2022-09-22T11:01:11.480Z,1.13
2022-09-22T11:07:06.875Z,0.93
2022-09-22T11:12:50.213Z,0.90
2022-09-22T11:18:39.545Z,0.90
2022-09-22T11:24:05.749Z,0.80
2022-09-22T11:30:11.266Z,1.00
2022-09-22T11:35:48.330Z,1.42
2022-09-22T11:41:25.900Z,1.02
2022-09-22T11:46:56.591Z,1.00
2022-09-22T11:52:26.767Z,0.80
2022-09-22T11:57:55.649Z,1.02
2022-09-22T12:03:27.311Z,0.90
2022-09-22T12:14:22.431Z,1.80
2022-09-22T12:20:12.734Z,1.40
2022-09-22T12:25:54.441Z,1.10
2022-09-22T12:31:18.783Z,0.75
2022-09-22T12:36:42.043Z,0.90
2022-09-22T12:42:15.584Z,0.77
2022-09-22T12:47:40.901Z,0.90
2022-09-22T12:53:12.318Z,0.90
2022-09-22T12:58:34.051Z,0.93
2022-09-22T13:04:11.766Z,0.82
2022-09-22T13:09:33.572Z,0.90
2022-09-22T13:15:07.494Z,0.80
2022-09-22T13:20:34.329Z,1.08
2022-09-22T13:26:08.259Z,0.95
2022-09-22T13:31:46.230Z,1.10
2022-09-22T13:37:16.681Z,0.90
2022-09-22T13:42:42.678Z,0.85
2022-09-22T13:48:11.539Z,1.05
2022-09-22T13:53:33.411Z,1.00
2022-09-22T13:58:57.429Z,1.10
2022-09-22T14:04:27.670Z,1.15
2022-09-22T14:09:50.627Z,1.08
2022-09-22T14:15:37.259Z,0.90
2022-09-22T14:20:59.121Z,0.80
2022-09-22T14:26:35.634Z,0.80
2022-09-22T14:32:13.028Z,0.70
2022-09-22T14:37:41.632Z,0.60
2022-09-22T14:43:09.693Z,0.90
2022-09-22T14:48:33.778Z,0.90
2022-09-22T14:54:02.694Z,1.20
2022-09-22T14:59:43.280Z,1.10
2022-09-22T15:05:05.452Z,0.90
2022-09-22T15:10:31.784Z,0.63
2022-09-22T15:15:53.806Z,0.80
2022-09-22T15:21:15.742Z,1.02
2022-09-22T15:26:38.589Z,0.80
2022-09-22T15:32:03.769Z,1.00
2022-09-22T15:37:25.581Z,0.85
2022-09-22T15:43:11.740Z,1.10
2022-09-22T15:48:37.029Z,1.00
2022-09-22T15:53:58.859Z,1.00
2022-09-22T15:59:26.790Z,1.00
2022-09-22T16:04:48.870Z,0.98
2022-09-22T16:10:20.871Z,1.10
2022-09-22T16:15:42.646Z,0.85
2022-09-22T16:21:18.517Z,1.08
2022-09-22T16:26:40.465Z,0.80
2022-09-22T16:32:02.231Z,0.90
2022-09-22T16:37:23.985Z,1.20
2022-09-22T16:42:46.033Z,1.20
2022-09-22T16:48:07.838Z,1.23
2022-09-22T16:53:29.584Z,1.02
2022-09-22T16:58:52.074Z,1.00
2022-09-22T17:04:16.353Z,1.25
2022-09-22T17:09:38.066Z,1.45
2022-09-22T17:14:59.751Z,1.27
2022-09-22T17:20:21.979Z,1.70
2022-09-22T17:25:46.708Z,1.38
2022-09-22T17:31:08.507Z,1.25
2022-09-22T17:36:30.657Z,1.52
2022-09-22T17:41:53.163Z,1.85
2022-09-22T17:47:33.553Z,2.15
2022-09-22T17:53:21.453Z,2.00
2022-09-22T17:58:43.321Z,1.80
2022-09-22T18:04:05.143Z,2.13
2022-09-22T18:09:27.006Z,1.98
2022-09-22T18:14:52.157Z,2.13
2022-09-22T18:20:20.727Z,2.08
2022-09-22T18:25:42.434Z,5.85
2022-09-22T18:31:04.454Z,3.90
2022-09-22T18:36:26.177Z,3.03
2022-09-22T18:41:48.200Z,2.63
2022-09-22T18:47:14.336Z,2.88
2022-09-22T18:52:37.208Z,3.45
2022-09-22T18:57:58.918Z,3.40
2022-09-22T19:03:20.652Z,2.65
2022-09-22T19:08:42.693Z,2.60
2022-09-22T19:14:04.662Z,3.78
2022-09-22T19:19:29.193Z,3.00
2022-09-22T19:24:53.463Z,2.55
2022-09-22T19:30:16.958Z,2.58
2022-09-22T19:35:41.256Z,2.50
2022-09-22T19:41:02.992Z,3.33
2022-09-22T19:46:24.809Z,3.15
2022-09-22T19:51:46.553Z,3.90
2022-09-22T19:57:08.258Z,2.78
2022-09-22T20:02:33.039Z,3.53
2022-09-22T20:07:55.968Z,2.88
2022-09-22T20:13:36.515Z,3.75
2022-09-22T20:18:58.232Z,3.70
2022-09-22T20:24:22.132Z,3.40
2022-09-22T20:29:43.946Z,3.28
2022-09-22T20:35:06.096Z,3.70
2022-09-22T20:40:29.011Z,3.45
2022-09-22T20:45:50.851Z,3.08
2022-09-22T20:51:13.025Z,3.00
2022-09-22T20:56:38.317Z,3.17
2022-09-22T21:02:02.491Z,3.53
2022-09-22T21:07:24.471Z,3.45
2022-09-22T21:12:46.187Z,3.40
2022-09-22T21:18:07.891Z,3.28
2022-09-22T21:23:30.033Z,3.60
2022-09-22T21:28:52.515Z,3.13
2022-09-22T21:34:14.236Z,3.35
2022-09-22T21:39:35.944Z,3.92
2022-09-22T21:44:57.701Z,3.10
2022-09-22T21:50:19.615Z,3.40
2022-09-22T21:55:41.401Z,2.85
2022-09-22T22:01:08.406Z,3.15
2022-09-22T22:06:34.351Z,3.30
2022-09-22T22:11:58.823Z,2.67
2022-09-22T22:17:20.510Z,3.15
2022-09-22T22:22:42.188Z,3.35
2022-09-22T22:28:03.893Z,2.47
2022-09-22T22:33:25.604Z,2.58
2022-09-22T22:38:47.333Z,2.95
2022-09-22T22:44:09.059Z,2.72
2022-09-22T22:49:31.268Z,2.85
2022-09-22T22:54:54.026Z,2.65
2022-09-22T23:00:15.830Z,3.30
2022-09-22T23:05:43.076Z,2.90
2022-09-22T23:11:17.856Z,2.90
2022-09-22T23:16:43.138Z,3.10
2022-09-22T23:22:05.639Z,3.40
2022-09-22T23:27:28.339Z,3.08
2022-09-22T23:32:50.115Z,3.40
2022-09-22T23:38:17.274Z,3.10
2022-09-22T23:43:39.689Z,3.35
2022-09-22T23:49:02.218Z,3.17
2022-09-22T23:54:23.962Z,3.40
2022-09-22T23:59:45.646Z,3.23
